Time;durP1;ratioP1;P1;durP2;ratioP2;P2;SDS_P1;SDS_P2;PMS_P1;PMS_P2;Temp;Humidity;BMP_temperature;BMP_pressure;BME280_temperature;BME280_humidity;BME280_pressure;Samples;Min_cycle;Max_cycle;Signal;HPM_P1;HPM_P2
2023/04/11 00:00:51;;;;;;;1.90;1.77;;;13.70;53.50;;;;;;4956947;28;20537;-63
2023/04/11 00:03:18;;;;;;;3.58;2.03;;;13.70;53.50;;;;;;4952636;28;20039;-62
2023/04/11 00:05:44;;;;;;;2.80;1.90;;;13.60;53.60;;;;;;4953548;28;20039;-63
2023/04/11 00:08:10;;;;;;;2.25;1.90;;;13.70;53.70;;;;;;4957230;28;20038;-63
2023/04/11 00:10:36;;;;;;;2.67;1.88;;;13.60;53.70;;;;;;4961477;28;20031;-63
2023/04/11 00:13:01;;;;;;;2.00;1.80;;;13.60;53.90;;;;;;4956995;28;20039;-64
2023/04/11 00:15:27;;;;;;;2.47;1.90;;;13.60;53.90;;;;;;4955774;28;20581;-63
2023/04/11 00:17:53;;;;;;;3.92;1.90;;;13.70;54.10;;;;;;4958841;28;20395;-63
2023/04/11 00:20:19;;;;;;;2.33;1.90;;;13.60;54.20;;;;;;4956018;28;20035;-63
2023/04/11 00:22:45;;;;;;;2.03;1.90;;;13.60;54.20;;;;;;4955764;28;20508;-63
2023/04/11 00:25:11;;;;;;;1.70;1.60;;;13.70;54.40;;;;;;4954317;28;20063;-63
2023/04/11 00:27:37;;;;;;;2.10;1.88;;;13.70;54.40;;;;;;4958273;28;20466;-63
2023/04/11 00:30:05;;;;;;;2.08;1.90;;;13.70;54.60;;;;;;4956374;28;20031;-63
2023/04/11 00:32:31;;;;;;;2.00;1.80;;;13.70;54.60;;;;;;4957192;28;20042;-63
2023/04/11 00:34:56;;;;;;;1.83;1.73;;;13.80;54.70;;;;;;4958900;28;20400;-62
2023/04/11 00:37:22;;;;;;;2.20;2.00;;;13.80;54.70;;;;;;4957410;28;20042;-63
2023/04/11 00:39:54;;;;;;;2.03;1.83;;;13.80;54.80;;;;;;4958878;28;20521;-62
2023/04/11 00:42:20;;;;;;;2.25;1.83;;;13.90;54.90;;;;;;4957628;28;20134;-63
2023/04/11 00:44:46;;;;;;;2.83;1.98;;;13.90;55.00;;;;;;4955416;28;20039;-63
2023/04/11 00:47:11;;;;;;;2.00;1.77;;;13.90;55.00;;;;;;4958679;28;20051;-62
2023/04/11 00:49:38;;;;;;;2.13;2.00;;;13.90;55.30;;;;;;4958094;28;20046;-63
2023/04/11 00:52:05;;;;;;;2.13;1.92;;;14.00;55.70;;;;;;4960369;28;20082;-63
2023/04/11 00:54:31;;;;;;;5.25;2.00;;;14.00;55.80;;;;;;4958669;28;20062;-63
2023/04/11 00:56:58;;;;;;;3.15;2.00;;;14.00;56.00;;;;;;4957255;28;20047;-63
2023/04/11 00:59:29;;;;;;;3.55;2.00;;;14.00;56.00;;;;;;4959931;28;20042;-61
2023/04/11 01:01:55;;;;;;;2.58;2.10;;;14.00;56.20;;;;;;4962692;28;20878;-63
2023/04/11 01:04:21;;;;;;;2.45;2.22;;;14.00;56.30;;;;;;4956821;28;20066;-61
2023/04/11 01:06:51;;;;;;;2.17;1.98;;;14.00;56.40;;;;;;4955354;28;20122;-62
2023/04/11 01:09:24;;;;;;;2.60;2.40;;;14.00;56.50;;;;;;4954903;28;20043;-62
2023/04/11 01:11:50;;;;;;;2.50;2.30;;;14.00;56.60;;;;;;4959495;28;20153;-63
2023/04/11 01:14:18;;;;;;;2.75;2.35;;;13.90;56.50;;;;;;4954845;28;20041;-63
2023/04/11 01:16:46;;;;;;;2.50;2.30;;;13.90;56.60;;;;;;4951572;28;20403;-63
2023/04/11 01:19:17;;;;;;;2.30;2.10;;;13.90;56.50;;;;;;4955503;28;20450;-63
2023/04/11 01:21:43;;;;;;;3.92;2.13;;;13.90;56.70;;;;;;4955969;28;20066;-63
2023/04/11 01:24:10;;;;;;;2.08;1.90;;;13.80;56.60;;;;;;4956483;28;20039;-63
2023/04/11 01:26:36;;;;;;;2.38;2.17;;;13.80;56.70;;;;;;4956294;28;20130;-63
2023/04/11 01:29:02;;;;;;;1.80;1.70;;;13.80;56.80;;;;;;4953025;28;20289;-63
2023/04/11 01:31:27;;;;;;;3.20;2.20;;;13.80;56.80;;;;;;4955170;28;20039;-64
2023/04/11 01:33:53;;;;;;;2.05;1.92;;;13.70;56.80;;;;;;4956925;28;20055;-64
2023/04/11 01:36:19;;;;;;;2.10;1.83;;;13.70;56.80;;;;;;4953041;28;20491;-64
2023/04/11 01:38:45;;;;;;;3.72;1.90;;;13.70;56.80;;;;;;4952843;28;21948;-63
2023/04/11 01:41:12;;;;;;;2.47;2.10;;;13.70;56.80;;;;;;4955898;28;20035;-63
2023/04/11 01:43:37;;;;;;;2.10;1.90;;;13.70;56.90;;;;;;4952776;28;20045;-63
2023/04/11 01:46:03;;;;;;;3.70;1.63;;;13.70;56.90;;;;;;4956827;28;20039;-63
2023/04/11 01:48:28;;;;;;;1.88;1.65;;;13.70;56.90;;;;;;4953835;28;20056;-64
2023/04/11 01:50:55;;;;;;;2.95;1.75;;;13.70;56.80;;;;;;4951889;28;20068;-63
2023/04/11 01:53:20;;;;;;;1.70;1.60;;;13.70;56.90;;;;;;4954932;28;20039;-63
2023/04/11 01:55:46;;;;;;;2.53;1.73;;;13.70;56.80;;;;;;4956450;28;20042;-63
2023/04/11 01:58:11;;;;;;;2.20;1.70;;;13.70;56.80;;;;;;4957966;28;20051;-63
2023/04/11 02:00:37;;;;;;;2.83;1.52;;;13.70;56.70;;;;;;4956072;28;20034;-63
2023/04/11 02:03:03;;;;;;;1.73;1.60;;;13.70;56.70;;;;;;4952998;28;20093;-63
2023/04/11 02:05:29;;;;;;;2.30;1.60;;;13.80;56.70;;;;;;4952767;28;20031;-62
2023/04/11 02:07:55;;;;;;;1.90;1.70;;;13.80;56.60;;;;;;4936107;28;20035;-63
2023/04/11 02:10:20;;;;;;;1.40;1.30;;;13.80;56.40;;;;;;4954194;28;20066;-63
2023/04/11 02:12:46;;;;;;;2.15;1.52;;;13.80;56.40;;;;;;4953672;28;20079;-64
2023/04/11 02:15:11;;;;;;;1.38;1.27;;;13.80;56.40;;;;;;4952903;28;20050;-63
2023/04/11 02:17:44;;;;;;;1.35;1.25;;;13.80;56.30;;;;;;4952614;28;20035;-60
2023/04/11 02:20:12;;;;;;;1.55;1.30;;;13.80;56.20;;;;;;4955489;28;20063;-62
2023/04/11 02:22:37;;;;;;;1.77;1.40;;;13.80;56.10;;;;;;4952464;28;20555;-63
2023/04/11 02:25:05;;;;;;;1.40;1.30;;;13.80;55.90;;;;;;4955676;28;20086;-62
2023/04/11 02:27:31;;;;;;;1.30;1.00;;;13.90;55.90;;;;;;4952616;28;20097;-64
2023/04/11 02:29:56;;;;;;;1.70;1.10;;;13.90;55.80;;;;;;4954078;28;20450;-63
2023/04/11 02:32:22;;;;;;;1.92;1.00;;;13.90;55.70;;;;;;4954354;28;20092;-62
2023/04/11 02:34:47;;;;;;;2.30;1.40;;;13.90;55.60;;;;;;4954617;28;20050;-63
2023/04/11 02:37:13;;;;;;;1.20;1.10;;;13.90;55.50;;;;;;4953387;28;20038;-62
2023/04/11 02:39:39;;;;;;;2.25;1.38;;;13.90;55.40;;;;;;4952636;28;20035;-62
2023/04/11 02:42:04;;;;;;;1.33;1.00;;;14.00;55.50;;;;;;4954870;28;20628;-63
2023/04/11 02:44:30;;;;;;;1.45;0.98;;;14.00;55.50;;;;;;4953091;28;20403;-63
2023/04/11 02:46:57;;;;;;;1.10;1.00;;;14.00;55.30;;;;;;4954109;28;20154;-63
2023/04/11 02:49:23;;;;;;;3.47;1.10;;;14.00;55.30;;;;;;4955703;28;20557;-62
2023/04/11 02:51:48;;;;;;;2.97;1.10;;;14.00;55.20;;;;;;4952333;28;20043;-64
2023/04/11 02:54:14;;;;;;;1.20;1.10;;;14.10;55.20;;;;;;4952663;28;20038;-62
2023/04/11 02:56:40;;;;;;;2.03;1.00;;;14.10;55.20;;;;;;4949663;28;20411;-63
2023/04/11 02:59:06;;;;;;;1.35;1.10;;;14.10;55.00;;;;;;4954445;28;20312;-63
2023/04/11 03:01:32;;;;;;;1.10;0.90;;;14.10;55.20;;;;;;4954515;28;20381;-63
2023/04/11 03:03:58;;;;;;;1.73;1.00;;;14.10;55.10;;;;;;4954910;28;20125;-63
2023/04/11 03:06:23;;;;;;;1.50;1.10;;;14.20;55.20;;;;;;4954706;28;20110;-63
2023/04/11 03:08:49;;;;;;;1.30;0.90;;;14.20;55.20;;;;;;4953148;28;20039;-63
2023/04/11 03:11:15;;;;;;;1.42;1.08;;;14.20;55.20;;;;;;4951119;28;20038;-63
2023/04/11 03:13:42;;;;;;;2.20;1.00;;;14.20;55.30;;;;;;4954749;28;20423;-61
2023/04/11 03:16:08;;;;;;;0.93;0.93;;;14.30;55.70;;;;;;4951804;28;20134;-63
2023/04/11 03:18:34;;;;;;;2.25;1.00;;;14.30;55.70;;;;;;4952533;28;20057;-64
2023/04/11 03:20:59;;;;;;;2.55;1.30;;;14.30;56.40;;;;;;4953006;28;20049;-63
2023/04/11 03:23:25;;;;;;;3.58;1.10;;;14.30;55.90;;;;;;4951436;28;20043;-63
2023/04/11 03:25:52;;;;;;;1.42;1.20;;;14.30;56.00;;;;;;4951828;28;20031;-62
2023/04/11 03:28:18;;;;;;;1.33;1.00;;;14.30;56.20;;;;;;4950530;28;20087;-62
2023/04/11 03:30:45;;;;;;;1.95;0.90;;;14.40;56.40;;;;;;4951110;28;20028;-62
2023/04/11 03:33:10;;;;;;;1.58;1.08;;;14.40;56.50;;;;;;4953756;28;20031;-63
2023/04/11 03:35:36;;;;;;;2.45;1.10;;;14.40;56.50;;;;;;4949996;28;20040;-63
2023/04/11 03:38:02;;;;;;;14.30;7.03;;;14.30;56.60;;;;;;4954299;28;20035;-63
2023/04/11 03:40:28;;;;;;;28.00;12.88;;;14.30;56.70;;;;;;4952475;28;20498;-62
2023/04/11 03:42:54;;;;;;;23.40;11.32;;;14.30;56.90;;;;;;4957857;28;20047;-62
2023/04/11 03:45:20;;;;;;;10.32;6.78;;;14.40;57.20;;;;;;4955640;28;20043;-62
2023/04/11 03:47:45;;;;;;;1.98;1.77;;;14.30;57.10;;;;;;4955382;28;20043;-63
2023/04/11 03:50:11;;;;;;;2.15;1.42;;;14.30;57.30;;;;;;4959677;28;20047;-62
2023/04/11 03:52:37;;;;;;;3.60;1.38;;;14.40;57.90;;;;;;4958823;28;20039;-62
2023/04/11 03:55:04;;;;;;;4.38;1.20;;;14.30;58.20;;;;;;4959561;28;20596;-61
2023/04/11 03:57:31;;;;;;;3.10;1.85;;;14.30;58.70;;;;;;4961933;28;20049;-61
2023/04/11 03:59:57;;;;;;;2.45;1.30;;;14.30;59.20;;;;;;4961609;28;20633;-62
2023/04/11 04:02:23;;;;;;;1.30;1.20;;;14.20;59.10;;;;;;4940825;28;20047;-60
2023/04/11 04:04:53;;;;;;;2.63;1.33;;;14.20;59.30;;;;;;4955668;28;20801;-63
2023/04/11 04:07:26;;;;;;;1.83;1.10;;;14.20;59.70;;;;;;4958309;28;20530;-62
2023/04/11 04:09:52;;;;;;;1.55;1.10;;;14.10;60.30;;;;;;4953886;28;20112;-62
2023/04/11 04:12:19;;;;;;;1.67;1.40;;;14.10;60.30;;;;;;4955060;28;20046;-61
2023/04/11 04:14:45;;;;;;;2.05;1.23;;;14.10;60.60;;;;;;4953844;28;20034;-61
2023/04/11 04:17:13;;;;;;;2.97;1.30;;;14.10;61.20;;;;;;4956456;28;20062;-61
2023/04/11 04:19:38;;;;;;;4.05;1.30;;;14.00;61.70;;;;;;4958037;28;20043;-63
2023/04/11 04:22:04;;;;;;;1.20;1.10;;;14.00;61.70;;;;;;4943196;28;20043;-61
2023/04/11 04:24:36;;;;;;;1.70;1.10;;;13.90;62.80;;;;;;4958271;28;20530;-63
2023/04/11 04:27:02;;;;;;;1.77;1.10;;;13.90;63.60;;;;;;4955280;28;20043;-63
2023/04/11 04:29:32;;;;;;;1.80;1.20;;;13.80;64.10;;;;;;4959100;28;20284;-62
2023/04/11 04:32:00;;;;;;;2.60;1.30;;;13.80;65.30;;;;;;4954627;28;20110;-63
2023/04/11 04:34:28;;;;;;;1.48;1.20;;;13.70;66.40;;;;;;4956258;28;20445;-62
2023/04/11 04:36:58;;;;;;;1.90;1.00;;;13.60;68.00;;;;;;4954667;28;20045;-62
2023/04/11 04:39:24;;;;;;;1.98;0.90;;;13.50;69.50;;;;;;4960606;28;20511;-62
2023/04/11 04:41:56;;;;;;;0.73;0.73;;;13.30;70.40;;;;;;4959590;28;20039;-62
2023/04/11 04:44:23;;;;;;;3.65;0.90;;;13.10;71.10;;;;;;4959253;28;20041;-62
2023/04/11 04:46:52;;;;;;;1.20;0.80;;;13.00;71.60;;;;;;4957625;28;20479;-63
2023/04/11 04:49:18;;;;;;;1.13;0.80;;;12.80;72.40;;;;;;4959980;28;20380;-62
2023/04/11 04:51:44;;;;;;;1.60;0.93;;;12.70;72.00;;;;;;4956533;28;20023;-63
2023/04/11 04:54:10;;;;;;;0.98;0.77;;;12.60;73.30;;;;;;4958926;28;20122;-62
2023/04/11 04:56:35;;;;;;;1.48;1.17;;;12.50;72.70;;;;;;4957944;28;20039;-61
2023/04/11 04:59:01;;;;;;;0.73;0.73;;;12.50;72.40;;;;;;4958694;28;20495;-63
2023/04/11 05:01:26;;;;;;;1.02;0.93;;;12.50;72.90;;;;;;4957825;28;20047;-61
2023/04/11 05:03:59;;;;;;;2.22;0.60;;;12.40;72.60;;;;;;4958384;28;20117;-62
2023/04/11 05:06:30;;;;;;;0.80;0.50;;;12.40;72.50;;;;;;4959367;28;20424;-62
2023/04/11 05:08:57;;;;;;;2.17;0.80;;;12.40;72.80;;;;;;4957979;28;20039;-63
2023/04/11 05:11:23;;;;;;;1.42;0.70;;;12.40;73.00;;;;;;4959846;28;20126;-62
2023/04/11 05:13:49;;;;;;;2.28;1.00;;;12.40;72.50;;;;;;4958299;28;20062;-62
2023/04/11 05:16:16;;;;;;;1.00;1.00;;;12.40;72.50;;;;;;4958410;28;20209;-61
2023/04/11 05:18:42;;;;;;;1.90;0.90;;;12.40;72.50;;;;;;4959236;28;20050;-63
2023/04/11 05:21:07;;;;;;;0.40;0.40;;;12.40;72.40;;;;;;4958767;28;20400;-63
2023/04/11 05:23:33;;;;;;;0.73;0.73;;;12.50;72.60;;;;;;4958856;28;20438;-62
2023/04/11 05:26:00;;;;;;;1.00;0.40;;;12.40;72.30;;;;;;4958965;28;20035;-63
2023/04/11 05:28:25;;;;;;;1.42;0.57;;;12.50;72.50;;;;;;4957182;28;20046;-63
2023/04/11 05:30:51;;;;;;;0.98;0.40;;;12.50;73.30;;;;;;4957157;28;20035;-63
2023/04/11 05:33:17;;;;;;;0.38;0.28;;;12.50;73.00;;;;;;4958277;28;20039;-63
2023/04/11 05:35:42;;;;;;;0.93;0.50;;;12.40;72.80;;;;;;4957381;28;20165;-62
2023/04/11 05:38:08;;;;;;;0.60;0.40;;;12.40;73.30;;;;;;4957511;28;20036;-61
2023/04/11 05:40:35;;;;;;;1.05;0.40;;;12.60;73.40;;;;;;4958963;28;20170;-62
2023/04/11 05:43:01;;;;;;;0.52;0.40;;;12.40;74.00;;;;;;4958401;28;20042;-63
2023/04/11 05:45:27;;;;;;;1.13;0.30;;;12.30;74.00;;;;;;4957366;28;20341;-62
2023/04/11 05:47:53;;;;;;;1.38;0.30;;;12.30;74.20;;;;;;4956278;28;20082;-62
2023/04/11 05:50:18;;;;;;;0.47;0.30;;;12.30;74.40;;;;;;4958560;28;20098;-63
2023/04/11 05:52:44;;;;;;;1.27;0.30;;;12.30;74.20;;;;;;4957770;28;20134;-62
2023/04/11 05:55:10;;;;;;;0.43;0.30;;;12.30;74.50;;;;;;4959826;28;20043;-63
2023/04/11 05:57:35;;;;;;;0.40;0.30;;;12.20;75.00;;;;;;4958735;28;20585;-63
2023/04/11 06:00:05;;;;;;;1.58;0.35;;;12.20;75.30;;;;;;4959506;28;20043;-62
2023/04/11 06:02:32;;;;;;;1.15;0.50;;;12.20;75.50;;;;;;4954632;28;20038;-63
2023/04/11 06:04:57;;;;;;;0.30;0.20;;;12.10;75.80;;;;;;4957487;28;20054;-63
2023/04/11 06:07:23;;;;;;;0.55;0.40;;;12.10;76.40;;;;;;4957189;28;20308;-63
2023/04/11 06:09:49;;;;;;;0.45;0.20;;;12.20;77.00;;;;;;4957544;28;20450;-62
2023/04/11 06:12:15;;;;;;;0.57;0.20;;;12.00;76.60;;;;;;4958575;28;20140;-63
2023/04/11 06:14:40;;;;;;;0.70;0.10;;;11.90;77.00;;;;;;4955932;28;20447;-63
2023/04/11 06:17:06;;;;;;;0.60;0.20;;;11.90;76.00;;;;;;4956464;28;20178;-63
2023/04/11 06:19:32;;;;;;;1.60;1.15;;;11.80;75.60;;;;;;4938838;28;20058;-63
2023/04/11 06:21:57;;;;;;;0.20;0.20;;;11.70;75.40;;;;;;4958023;28;20035;-63
2023/04/11 06:24:38;;;;;;;0.10;0.10;;;11.60;75.30;;;;;;4957346;28;20030;-62
2023/04/11 06:27:04;;;;;;;0.10;0.10;;;11.50;76.30;;;;;;4956092;28;20046;-63
2023/04/11 06:29:30;;;;;;;0.52;0.20;;;11.40;76.00;;;;;;4957314;28;20090;-63
2023/04/11 06:31:57;;;;;;;0.00;0.00;;;11.30;76.00;;;;;;4957118;28;20036;-62
2023/04/11 06:34:23;;;;;;;0.10;0.10;;;11.30;75.40;;;;;;4957888;28;20043;-61
2023/04/11 06:36:49;;;;;;;0.10;0.10;;;11.20;74.90;;;;;;4955048;28;20046;-60
2023/04/11 06:39:18;;;;;;;0.30;0.10;;;11.10;74.70;;;;;;4957348;28;20147;-62
2023/04/11 06:41:45;;;;;;;0.52;0.30;;;11.00;74.90;;;;;;4956323;28;20043;-62
2023/04/11 06:44:11;;;;;;;0.57;0.10;;;10.90;74.90;;;;;;4957744;28;20387;-62
2023/04/11 06:46:37;;;;;;;0.20;0.10;;;10.90;74.70;;;;;;4955804;28;20035;-62
2023/04/11 06:49:04;;;;;;;0.20;0.10;;;10.90;74.80;;;;;;4956964;28;20153;-62
2023/04/11 06:51:30;;;;;;;0.40;0.15;;;10.80;75.10;;;;;;4958699;28;20086;-60
2023/04/11 06:53:55;;;;;;;0.13;0.00;;;10.80;75.40;;;;;;4956703;28;20043;-62
2023/04/11 06:56:21;;;;;;;0.45;0.20;;;10.80;75.00;;;;;;4955742;28;20039;-61
2023/04/11 06:58:46;;;;;;;0.35;0.30;;;10.70;75.10;;;;;;4956093;28;22439;-62
2023/04/11 07:01:14;;;;;;;1.30;0.30;;;10.70;74.70;;;;;;4957078;28;20034;-62
2023/04/11 07:03:40;;;;;;;0.50;0.30;;;10.70;73.70;;;;;;4957026;28;20054;-62
2023/04/11 07:06:06;;;;;;;0.25;0.20;;;10.60;73.30;;;;;;4958199;28;20031;-62
2023/04/11 07:08:32;;;;;;;0.88;0.30;;;10.60;72.90;;;;;;4956496;28;20118;-62
2023/04/11 07:10:58;;;;;;;0.98;0.20;;;10.50;72.80;;;;;;4956929;28;20090;-62
2023/04/11 07:13:23;;;;;;;0.75;0.20;;;10.50;72.70;;;;;;4958921;28;20038;-61
2023/04/11 07:15:49;;;;;;;0.63;0.20;;;10.40;72.50;;;;;;4959398;28;20038;-62
2023/04/11 07:18:15;;;;;;;0.57;0.25;;;10.40;72.20;;;;;;4960287;28;20697;-62
2023/04/11 07:20:41;;;;;;;0.40;0.30;;;10.30;72.20;;;;;;4960295;28;20031;-62
2023/04/11 07:23:06;;;;;;;1.23;0.47;;;10.20;72.20;;;;;;4961456;28;20504;-63
2023/04/11 07:25:32;;;;;;;1.15;0.30;;;10.20;72.40;;;;;;4959934;28;20135;-62
2023/04/11 07:28:06;;;;;;;1.02;0.30;;;10.20;72.10;;;;;;4960915;28;20057;-62
2023/04/11 07:30:32;;;;;;;1.20;0.20;;;10.10;71.50;;;;;;4962050;28;20074;-62
2023/04/11 07:32:57;;;;;;;1.85;0.45;;;10.10;71.30;;;;;;4960390;28;20044;-62
2023/04/11 07:35:23;;;;;;;1.08;0.30;;;10.10;71.10;;;;;;4960507;28;20458;-60
2023/04/11 07:37:49;;;;;;;1.45;0.20;;;10.00;71.30;;;;;;4960042;28;20065;-62
2023/04/11 07:40:15;;;;;;;0.98;0.43;;;10.00;70.90;;;;;;4961448;28;20712;-62
2023/04/11 07:42:41;;;;;;;1.40;0.30;;;10.00;71.30;;;;;;4960735;28;20070;-62
2023/04/11 07:45:07;;;;;;;1.13;0.35;;;10.00;71.80;;;;;;4960524;28;20043;-62
2023/04/11 07:47:33;;;;;;;2.60;0.40;;;10.00;71.90;;;;;;4959847;28;20046;-62
2023/04/11 07:49:58;;;;;;;1.83;0.30;;;10.00;72.00;;;;;;4960075;28;20040;-62
2023/04/11 07:52:26;;;;;;;0.68;0.30;;;10.00;71.60;;;;;;4959468;28;20628;-62
2023/04/11 07:54:52;;;;;;;1.90;0.45;;;10.00;71.60;;;;;;4961662;28;20191;-61
2023/04/11 07:57:18;;;;;;;1.08;0.30;;;10.00;71.60;;;;;;4961984;28;20574;-60
2023/04/11 07:59:43;;;;;;;1.08;0.30;;;10.00;71.70;;;;;;4960786;28;20042;-62
2023/04/11 08:02:09;;;;;;;1.55;0.30;;;10.00;72.10;;;;;;4955312;28;20049;-61
2023/04/11 08:04:35;;;;;;;0.70;0.47;;;10.10;72.00;;;;;;4959802;28;20034;-62
2023/04/11 08:07:02;;;;;;;1.05;0.20;;;10.10;71.90;;;;;;4961458;28;20138;-61
2023/04/11 08:09:27;;;;;;;1.88;0.30;;;10.10;72.20;;;;;;4960834;28;20042;-60
2023/04/11 08:11:53;;;;;;;1.05;0.40;;;10.20;72.20;;;;;;4961826;28;20054;-61
2023/04/11 08:14:19;;;;;;;1.10;0.28;;;10.20;71.80;;;;;;4961354;28;20114;-61
2023/04/11 08:16:45;;;;;;;1.05;0.40;;;10.30;71.50;;;;;;4959224;28;20186;-60
2023/04/11 08:19:10;;;;;;;1.08;0.38;;;10.40;71.30;;;;;;4962062;28;20047;-60
2023/04/11 08:21:37;;;;;;;3.53;0.50;;;10.50;71.40;;;;;;4961285;28;20038;-60
2023/04/11 08:24:03;;;;;;;1.85;0.30;;;10.40;70.30;;;;;;4961445;28;20419;-61
2023/04/11 08:26:28;;;;;;;2.65;0.40;;;10.50;69.90;;;;;;4959229;28;20035;-60
2023/04/11 08:28:54;;;;;;;4.68;0.52;;;10.50;70.40;;;;;;4960807;28;20042;-60
2023/04/11 08:31:20;;;;;;;2.17;0.60;;;10.60;68.90;;;;;;4960963;28;20039;-62
2023/04/11 08:33:46;;;;;;;3.92;0.63;;;10.60;68.50;;;;;;4960476;28;20154;-62
2023/04/11 08:36:11;;;;;;;4.72;0.45;;;10.60;68.00;;;;;;4960672;28;20530;-61
2023/04/11 08:38:38;;;;;;;3.75;0.52;;;10.60;68.20;;;;;;4960321;28;20034;-61
2023/04/11 08:41:04;;;;;;;3.25;0.70;;;10.70;67.80;;;;;;4944871;28;20039;-61
2023/04/11 08:43:34;;;;;;;4.45;0.65;;;10.70;67.40;;;;;;4961559;28;20035;-61
2023/04/11 08:46:02;;;;;;;3.20;0.65;;;10.70;67.70;;;;;;4959628;28;20142;-60
2023/04/11 08:48:28;;;;;;;2.15;0.77;;;10.70;67.30;;;;;;4960333;28;20452;-61
2023/04/11 08:50:54;;;;;;;2.25;0.68;;;10.70;66.90;;;;;;4961137;28;20078;-61
2023/04/11 08:53:21;;;;;;;4.55;0.88;;;10.70;66.90;;;;;;4960110;28;20039;-61
2023/04/11 08:55:47;;;;;;;2.90;0.60;;;10.70;66.40;;;;;;4959691;28;20038;-61
2023/04/11 08:58:13;;;;;;;2.50;0.50;;;10.70;66.40;;;;;;4960899;28;20030;-61
2023/04/11 09:00:39;;;;;;;3.30;0.77;;;10.70;66.40;;;;;;4960072;28;20053;-61
2023/04/11 09:03:07;;;;;;;2.22;0.80;;;10.70;66.00;;;;;;4960907;28;20380;-61
2023/04/11 09:05:35;;;;;;;2.78;0.60;;;10.70;66.20;;;;;;4959925;28;20040;-62
2023/04/11 09:08:05;;;;;;;3.28;0.90;;;10.60;65.90;;;;;;4960333;28;20038;-62
2023/04/11 09:10:30;;;;;;;3.40;0.80;;;10.60;66.00;;;;;;4958637;28;20058;-61
2023/04/11 09:12:57;;;;;;;3.05;0.70;;;10.60;66.10;;;;;;4961606;28;20511;-61
2023/04/11 09:15:28;;;;;;;5.28;0.73;;;10.60;66.80;;;;;;4959243;28;20078;-62
2023/04/11 09:17:54;;;;;;;1.98;0.50;;;10.70;66.90;;;;;;4959922;28;20038;-62
2023/04/11 09:20:25;;;;;;;5.18;0.82;;;10.70;66.60;;;;;;4962087;28;20039;-61
2023/04/11 09:22:52;;;;;;;6.05;0.75;;;10.80;67.30;;;;;;4959096;28;20503;-63
2023/04/11 09:25:19;;;;;;;3.03;0.80;;;10.80;66.90;;;;;;4959790;28;20081;-62
2023/04/11 09:27:45;;;;;;;3.22;0.73;;;10.90;66.60;;;;;;4959740;28;20066;-62
2023/04/11 09:30:24;;;;;;;3.63;0.90;;;11.00;67.10;;;;;;4960742;28;20038;-62
2023/04/11 09:32:52;;;;;;;4.32;1.25;;;11.00;65.70;;;;;;4960286;28;20619;-62
2023/04/11 09:35:23;;;;;;;3.85;1.10;;;11.10;65.90;;;;;;4960786;28;20035;-62
2023/04/11 09:37:52;;;;;;;3.38;1.10;;;11.10;65.60;;;;;;4958674;28;20066;-63
2023/04/11 09:40:20;;;;;;;5.03;1.02;;;11.10;65.90;;;;;;4960342;28;20070;-62
2023/04/11 09:42:47;;;;;;;3.05;0.70;;;11.20;65.80;;;;;;4958391;28;20039;-63
2023/04/11 09:45:21;;;;;;;2.65;0.90;;;11.20;65.90;;;;;;4960651;28;20051;-61
2023/04/11 09:47:49;;;;;;;3.08;0.65;;;11.20;66.00;;;;;;4958512;28;20070;-62
2023/04/11 09:50:15;;;;;;;4.95;0.85;;;11.30;66.30;;;;;;4959944;28;20134;-61
2023/04/11 09:52:42;;;;;;;4.72;0.80;;;11.30;65.30;;;;;;4959912;28;20042;-62
2023/04/11 09:55:18;;;;;;;3.33;0.80;;;11.40;65.20;;;;;;4961568;28;20050;-57
2023/04/11 09:57:46;;;;;;;2.75;0.75;;;11.40;65.10;;;;;;4961335;28;20043;-62
2023/04/11 10:00:15;;;;;;;2.22;0.90;;;11.50;64.80;;;;;;4961659;28;20038;-60
2023/04/11 10:02:43;;;;;;;2.78;1.10;;;11.50;64.40;;;;;;4960717;28;20086;-59
2023/04/11 10:05:09;;;;;;;3.05;1.00;;;11.50;64.80;;;;;;4959411;28;20047;-59
2023/04/11 10:08:02;;;;;;;3.15;0.80;;;11.60;64.60;;;;;;4959276;28;20055;-62
2023/04/11 10:10:27;;;;;;;2.78;0.90;;;11.60;64.30;;;;;;4957094;28;20035;-63
2023/04/11 10:12:53;;;;;;;3.72;1.17;;;11.60;64.20;;;;;;4957874;28;20043;-61
2023/04/11 10:15:20;;;;;;;2.63;1.20;;;11.70;64.30;;;;;;4959763;28;20039;-62
2023/04/11 10:18:09;;;;;;;2.17;0.70;;;11.70;64.30;;;;;;4957922;28;20042;-62
2023/04/11 10:20:37;;;;;;;4.20;0.82;;;11.80;63.60;;;;;;4956849;28;20053;-61
2023/04/11 10:23:03;;;;;;;2.05;0.80;;;11.90;63.50;;;;;;4960596;28;20047;-62
2023/04/11 10:25:30;;;;;;;3.42;0.80;;;11.90;62.60;;;;;;4959618;28;20058;-63
2023/04/11 10:28:02;;;;;;;6.88;1.00;;;11.90;62.90;;;;;;4958673;28;20094;-63
2023/04/11 10:30:40;;;;;;;3.25;0.70;;;12.00;63.10;;;;;;4958284;28;20043;-63
2023/04/11 10:33:14;;;;;;;2.83;0.90;;;12.00;62.60;;;;;;4957160;28;20039;-63
2023/04/11 10:36:11;;;;;;;2.53;0.90;;;12.10;62.00;;;;;;4958133;28;20042;-62
2023/04/11 10:38:40;;;;;;;5.68;0.73;;;12.10;61.40;;;;;;4958037;28;20119;-60
2023/04/11 10:41:17;;;;;;;1.70;0.55;;;12.20;62.20;;;;;;4959353;28;20489;-62
2023/04/11 10:43:43;;;;;;;2.88;0.98;;;12.20;61.50;;;;;;4958396;28;20047;-61
2023/04/11 10:46:19;;;;;;;3.97;0.85;;;12.20;61.80;;;;;;4956620;28;20050;-60
2023/04/11 10:49:02;;;;;;;3.50;0.90;;;12.20;60.80;;;;;;4957282;28;20027;-60
2023/04/11 10:51:30;;;;;;;3.10;0.80;;;12.30;60.00;;;;;;4957156;28;20033;-62
2023/04/11 10:53:58;;;;;;;1.88;0.80;;;12.30;61.10;;;;;;4958751;28;20039;-62
2023/04/11 10:56:39;;;;;;;1.95;0.57;;;12.30;59.90;;;;;;4958409;28;20651;-62
2023/04/11 10:59:04;;;;;;;2.53;0.82;;;12.40;59.40;;;;;;4958370;28;20039;-62
2023/04/11 11:01:30;;;;;;;1.65;0.73;;;12.40;59.90;;;;;;4958602;28;20046;-62
2023/04/11 11:03:56;;;;;;;1.00;0.50;;;12.50;59.10;;;;;;4958854;28;20034;-62
2023/04/11 11:06:23;;;;;;;1.33;0.80;;;12.50;58.20;;;;;;4958775;28;20505;-62
2023/04/11 11:08:49;;;;;;;2.72;0.60;;;12.60;58.30;;;;;;4958509;28;20526;-61
2023/04/11 11:11:15;;;;;;;1.20;0.52;;;12.60;57.50;;;;;;4958158;28;20049;-62
2023/04/11 11:13:52;;;;;;;2.95;0.60;;;12.70;57.30;;;;;;4957968;28;20049;-60
2023/04/11 11:16:21;;;;;;;1.90;0.82;;;12.80;55.90;;;;;;4957780;28;20035;-63
2023/04/11 11:18:50;;;;;;;3.30;0.50;;;12.80;57.40;;;;;;4958416;28;20046;-63
2023/04/11 11:21:19;;;;;;;1.05;0.45;;;12.80;55.90;;;;;;4958820;28;20043;-62
2023/04/11 11:23:59;;;;;;;2.97;0.65;;;12.90;56.30;;;;;;4958881;28;20038;-63
2023/04/11 11:26:43;;;;;;;2.42;0.70;;;13.00;54.60;;;;;;4958360;28;20031;-63
2023/04/11 11:29:10;;;;;;;1.23;0.50;;;13.00;54.70;;;;;;4958846;28;20086;-62
2023/04/11 11:31:46;;;;;;;2.40;0.55;;;13.10;56.30;;;;;;4959786;28;20437;-62
2023/04/11 11:34:12;;;;;;;2.05;0.68;;;13.10;56.70;;;;;;4958235;28;20047;-62
2023/04/11 11:36:41;;;;;;;4.10;0.60;;;13.20;57.00;;;;;;4958131;28;20038;-62
2023/04/11 11:39:09;;;;;;;1.58;0.73;;;13.30;56.50;;;;;;4959000;28;20503;-62
2023/04/11 11:41:35;;;;;;;1.83;0.50;;;13.40;55.50;;;;;;4958866;28;20050;-62
2023/04/11 11:44:02;;;;;;;0.85;0.60;;;13.40;54.10;;;;;;4957448;28;20062;-63
2023/04/11 11:46:29;;;;;;;3.83;0.70;;;13.40;52.80;;;;;;4957816;28;20035;-62
2023/04/11 11:49:02;;;;;;;3.15;0.80;;;13.50;52.70;;;;;;4957056;28;20059;-63
2023/04/11 11:51:47;;;;;;;1.75;0.60;;;13.40;52.60;;;;;;4958414;28;20384;-62
2023/04/11 11:54:12;;;;;;;1.92;0.80;;;13.40;51.70;;;;;;4961138;28;20078;-62
2023/04/11 11:56:39;;;;;;;2.38;0.50;;;13.40;52.60;;;;;;4958694;28;20085;-62
2023/04/11 11:59:06;;;;;;;2.55;0.80;;;13.30;53.10;;;;;;4959779;28;20035;-62
2023/04/11 12:01:36;;;;;;;2.05;0.60;;;13.30;53.10;;;;;;4961671;28;20094;-63
2023/04/11 12:04:05;;;;;;;1.65;0.60;;;13.30;52.80;;;;;;4962027;28;20503;-62
2023/04/11 12:06:31;;;;;;;3.30;1.05;;;13.40;53.50;;;;;;4958678;28;20477;-62
2023/04/11 12:09:07;;;;;;;2.40;0.65;;;13.40;53.30;;;;;;4961185;28;20036;-63
2023/04/11 12:11:40;;;;;;;1.98;0.60;;;13.40;52.20;;;;;;4961979;28;20035;-63
2023/04/11 12:14:07;;;;;;;2.45;0.85;;;13.40;52.50;;;;;;4961536;28;20038;-62
2023/04/11 12:16:33;;;;;;;2.53;0.73;;;13.40;52.80;;;;;;4961043;28;20090;-61
2023/04/11 12:19:01;;;;;;;3.38;0.90;;;13.40;52.70;;;;;;4961780;28;20043;-61
2023/04/11 12:21:26;;;;;;;2.22;0.80;;;13.50;53.30;;;;;;4959501;28;20063;-61
2023/04/11 12:23:52;;;;;;;4.60;0.77;;;13.50;53.20;;;;;;4961469;28;20059;-62
2023/04/11 12:26:19;;;;;;;1.63;0.70;;;13.50;52.40;;;;;;4961635;28;20502;-61
2023/04/11 12:28:45;;;;;;;2.65;0.60;;;13.60;52.20;;;;;;4961131;28;20038;-62
2023/04/11 12:31:11;;;;;;;1.50;0.50;;;13.70;52.40;;;;;;4961420;28;20419;-62
2023/04/11 12:33:37;;;;;;;1.67;0.70;;;13.80;52.90;;;;;;4961640;28;20423;-62
2023/04/11 12:36:06;;;;;;;3.92;0.63;;;13.80;52.20;;;;;;4961376;28;20047;-62
2023/04/11 12:38:32;;;;;;;2.92;0.77;;;13.90;52.40;;;;;;4960257;28;20178;-62
2023/04/11 12:40:58;;;;;;;1.80;0.60;;;13.90;51.60;;;;;;4960404;28;20038;-63
2023/04/11 12:43:24;;;;;;;2.42;0.80;;;14.00;52.00;;;;;;4962133;28;20051;-62
2023/04/11 12:45:49;;;;;;;1.55;0.60;;;14.00;51.30;;;;;;4960464;28;20040;-61